Time;durP1;ratioP1;P1;durP2;ratioP2;P2;SDS_P1;SDS_P2;PMS_P1;PMS_P2;Temp;Humidity;BMP_temperature;BMP_pressure;BME280_temperature;BME280_humidity;BME280_pressure;Samples;Min_cycle;Max_cycle;Signal;HPM_P1;HPM_P2
2022/03/11 00:01:42;;;;;;;;;;;5.40;99.90;;;;;;5086215;28;19923;-71
2022/03/11 00:04:08;;;;;;;;;;;5.50;99.90;;;;;;5065924;28;19946;-71
2022/03/11 00:06:33;;;;;;;;;;;5.40;99.90;;;;;;5089130;28;20000;-71
2022/03/11 00:08:59;;;;;;;;;;;5.30;99.90;;;;;;5086588;28;19972;-71
2022/03/11 00:11:24;;;;;;;;;;;5.40;99.90;;;;;;5084073;28;20408;-71
2022/03/11 00:13:49;;;;;;;;;;;5.30;99.90;;;;;;5088308;28;19946;-71
2022/03/11 00:16:15;;;;;;;;;;;5.10;99.90;;;;;;5088015;28;19924;-71
2022/03/11 00:18:40;;;;;;;;;;;5.30;99.90;;;;;;5067056;28;19931;-70
2022/03/11 00:21:08;;;;;;;;;;;5.00;99.90;;;;;;5087785;28;19955;-71
2022/03/11 00:23:33;;;;;;;;;;;5.00;99.90;;;;;;5085535;28;20383;-71
2022/03/11 00:25:58;;;;;;;;;;;5.10;99.90;;;;;;5086455;28;19982;-71
2022/03/11 00:28:24;;;;;;;;;;;5.00;99.90;;;;;;5084007;28;20358;-70
2022/03/11 00:30:49;;;;;;;;;;;5.00;99.90;;;;;;5068025;28;19927;-70
2022/03/11 00:33:15;;;;;;;;;;;5.00;99.90;;;;;;5086652;28;19927;-70
2022/03/11 00:35:40;;;;;;;;;;;4.90;99.90;;;;;;5085329;28;19975;-69
2022/03/11 00:38:06;;;;;;;;;;;4.90;99.90;;;;;;5085047;28;19920;-69
2022/03/11 00:40:31;;;;;;;;;;;4.90;99.90;;;;;;5088439;28;20248;-69
2022/03/11 00:42:57;;;;;;;;;;;4.90;99.90;;;;;;5090232;28;20007;-70
2022/03/11 00:45:22;;;;;;;;;;;4.90;99.90;;;;;;5085695;28;19972;-70
2022/03/11 00:47:48;;;;;;;;;;;4.80;99.90;;;;;;5089887;28;19928;-70
2022/03/11 00:50:14;;;;;;;;;;;4.80;99.90;;;;;;5086514;28;20007;-70
2022/03/11 00:52:40;;;;;;;;;;;4.80;99.90;;;;;;5084628;28;19924;-70
2022/03/11 00:55:05;;;;;;;;;;;4.70;99.90;;;;;;5089491;28;19928;-70
2022/03/11 00:57:31;;;;;;;;;;;4.70;99.90;;;;;;5089643;28;19947;-70
2022/03/11 00:59:56;;;;;;;;;;;4.60;99.90;;;;;;5089692;28;19935;-70
2022/03/11 01:02:22;;;;;;;;;;;4.60;99.90;;;;;;5090984;28;20370;-70
2022/03/11 01:04:49;;;;;;;;;;;4.60;99.90;;;;;;5083451;28;19963;-70
2022/03/11 01:07:15;;;;;;;;;;;4.50;99.90;;;;;;5086542;28;20016;-70
2022/03/11 01:09:40;;;;;;;;;;;4.50;99.90;;;;;;5087989;28;20078;-70
2022/03/11 01:12:06;;;;;;;;;;;4.50;99.90;;;;;;5089576;28;19931;-70
2022/03/11 01:14:31;;;;;;;;;;;4.50;99.90;;;;;;5069224;28;20306;-70
2022/03/11 01:16:57;;;;;;;;;;;4.50;99.90;;;;;;5089737;28;19979;-70
2022/03/11 01:19:23;;;;;;;;;;;4.40;99.90;;;;;;5087137;28;19997;-70
2022/03/11 01:21:49;;;;;;;;;;;4.40;99.90;;;;;;5086683;28;19920;-70
2022/03/11 01:24:14;;;;;;;;;;;4.40;99.90;;;;;;5075240;28;20397;-70
2022/03/11 01:26:40;;;;;;;;;;;4.40;99.90;;;;;;5087147;28;19940;-70
2022/03/11 01:29:05;;;;;;;;;;;4.40;99.90;;;;;;5087557;28;20388;-69
2022/03/11 01:31:31;;;;;;;;;;;4.40;99.90;;;;;;5088470;28;19969;-70
2022/03/11 01:33:56;;;;;;;;;;;4.40;99.90;;;;;;5071269;28;19927;-70
2022/03/11 01:36:22;;;;;;;;;;;4.30;99.90;;;;;;5088847;28;19924;-70
2022/03/11 01:38:48;;;;;;;;;;;4.30;99.90;;;;;;5084672;28;20014;-70
2022/03/11 01:41:13;;;;;;;;;;;4.30;99.90;;;;;;5075621;28;19920;-70
2022/03/11 01:43:58;;;;;;;;;;;4.30;99.90;;;;;;5089039;28;19928;-70
2022/03/11 01:46:24;;;;;;;;;;;4.30;99.90;;;;;;5086694;28;19974;-70
2022/03/11 01:48:49;;;;;;;;;;;4.30;99.90;;;;;;5089250;28;19963;-71
2022/03/11 01:51:15;;;;;;;;;;;4.30;99.90;;;;;;5089229;28;19965;-70
2022/03/11 01:53:41;;;;;;;;;;;4.30;99.90;;;;;;5090125;28;19931;-71
2022/03/11 01:56:06;;;;;;;;;;;4.20;99.90;;;;;;5090810;28;20383;-71
2022/03/11 01:58:32;;;;;;;;;;;4.20;99.90;;;;;;5090660;28;19924;-71
2022/03/11 02:00:58;;;;;;;;;;;4.20;99.90;;;;;;5089376;28;19928;-70
2022/03/11 02:03:23;;;;;;;;;;;4.20;99.90;;;;;;5088416;28;20028;-71
2022/03/11 02:05:49;;;;;;;;;;;4.20;99.90;;;;;;5091213;28;19927;-70
2022/03/11 02:08:14;;;;;;;;;;;4.10;99.90;;;;;;5091258;28;20344;-70
2022/03/11 02:10:40;;;;;;;;;;;4.20;99.90;;;;;;5072373;28;19920;-70
2022/03/11 02:13:06;;;;;;;;;;;4.10;99.90;;;;;;5070957;28;19919;-70
2022/03/11 02:15:32;;;;;;;;;;;4.10;99.90;;;;;;5089135;28;19966;-70
2022/03/11 02:17:58;;;;;;;;;;;4.10;99.90;;;;;;5084500;28;20349;-70
2022/03/11 02:20:23;;;;;;;;;;;4.10;99.90;;;;;;5087022;28;19920;-71
2022/03/11 02:22:50;;;;;;;;;;;4.10;99.90;;;;;;5090947;28;19919;-71
2022/03/11 02:25:15;;;;;;;;;;;4.10;99.90;;;;;;5088657;28;20386;-70
2022/03/11 02:27:42;;;;;;;;;;;4.10;99.90;;;;;;5069920;28;20015;-71
2022/03/11 02:30:12;;;;;;;;;;;4.10;99.90;;;;;;5088158;28;19926;-70
2022/03/11 02:32:38;;;;;;;;;;;4.10;99.90;;;;;;5087994;28;19930;-71
2022/03/11 02:35:03;;;;;;;;;;;4.10;99.90;;;;;;5086895;28;19920;-70
2022/03/11 02:37:29;;;;;;;;;;;4.00;99.90;;;;;;5065461;28;19927;-70
2022/03/11 02:39:56;;;;;;;;;;;4.00;99.90;;;;;;5083565;28;19920;-70
2022/03/11 02:42:21;;;;;;;;;;;4.10;99.90;;;;;;5089396;28;20038;-70
2022/03/11 02:44:47;;;;;;;;;;;4.00;99.90;;;;;;5085425;28;20478;-70
2022/03/11 02:47:12;;;;;;;;;;;4.00;99.90;;;;;;5087205;28;19930;-70
2022/03/11 02:49:38;;;;;;;;;;;4.00;99.90;;;;;;5088535;28;19927;-70
2022/03/11 02:52:04;;;;;;;;;;;4.00;99.90;;;;;;5128605;22;19926;-57
2022/03/11 02:54:29;;;;;;;;;;;4.00;99.90;;;;;;5087203;28;19927;-57
2022/03/11 02:56:55;;;;;;;;;;;4.00;99.90;;;;;;5086164;28;19920;-58
2022/03/11 02:59:20;;;;;;;;;;;3.90;99.90;;;;;;5085357;28;21123;-57
2022/03/11 03:01:46;;;;;;;;;;;3.90;99.90;;;;;;5086696;28;19974;-57
2022/03/11 03:04:11;;;;;;;;;;;3.90;99.90;;;;;;5088154;28;19983;-58
2022/03/11 03:06:37;;;;;;;;;;;3.90;99.90;;;;;;5087880;28;19920;-53
2022/03/11 03:09:02;;;;;;;;;;;3.90;99.90;;;;;;5085231;28;19980;-58
2022/03/11 03:11:28;;;;;;;;;;;3.90;99.90;;;;;;5085985;28;19920;-57
2022/03/11 03:13:53;;;;;;;;;;;3.80;99.90;;;;;;5084473;28;19920;-58
2022/03/11 03:16:19;;;;;;;;;;;3.80;99.90;;;;;;5086156;28;19928;-57
2022/03/11 03:18:44;;;;;;;;;;;3.80;99.90;;;;;;5081778;28;20004;-56
2022/03/11 03:21:10;;;;;;;;;;;3.80;99.90;;;;;;5085904;28;19927;-58
2022/03/11 03:23:35;;;;;;;;;;;3.80;99.90;;;;;;5086103;28;19928;-57
2022/03/11 03:26:01;;;;;;;;;;;3.80;99.90;;;;;;5085275;28;19978;-58
2022/03/11 03:28:27;;;;;;;;;;;3.70;99.90;;;;;;5084939;28;19928;-58
2022/03/11 03:30:53;;;;;;;;;;;3.70;99.90;;;;;;5085373;28;20327;-57
2022/03/11 03:33:18;;;;;;;;;;;3.70;99.90;;;;;;5086581;28;20578;-57
2022/03/11 03:35:44;;;;;;;;;;;3.70;99.90;;;;;;5086221;28;19980;-57
2022/03/11 03:38:09;;;;;;;;;;;3.60;99.90;;;;;;5085374;28;19920;-57
2022/03/11 03:40:35;;;;;;;;;;;3.60;99.90;;;;;;5084190;28;19920;-57
2022/03/11 03:43:00;;;;;;;;;;;3.60;99.90;;;;;;5084661;28;19973;-57
2022/03/11 03:45:26;;;;;;;;;;;3.60;99.90;;;;;;5086880;28;20010;-58
2022/03/11 03:47:51;;;;;;;;;;;3.60;99.90;;;;;;5064266;28;19973;-57
2022/03/11 03:50:17;;;;;;;;;;;3.50;99.90;;;;;;5083543;28;19964;-57
2022/03/11 03:52:42;;;;;;;;;;;3.50;99.90;;;;;;5100018;28;19927;-57
2022/03/11 03:55:08;;;;;;;;;;;3.50;99.90;;;;;;5101605;28;19941;-56
2022/03/11 03:57:34;;;;;;;;;;;3.50;99.90;;;;;;5107090;28;20410;-57
2022/03/11 03:59:59;;;;;;;;;;;3.50;99.90;;;;;;5106318;28;19920;-57
2022/03/11 04:02:25;;;;;;;;;;;3.40;99.90;;;;;;5105510;28;19920;-57
2022/03/11 04:04:51;;;;;;;;;;;3.40;99.90;;;;;;5105496;28;21850;-57
2022/03/11 04:07:17;;;;;;;;;;;3.30;99.90;;;;;;5105844;28;19927;-57
2022/03/11 04:09:42;;;;;;;;;;;3.40;99.90;;;;;;5104863;28;19923;-57
2022/03/11 04:12:09;;;;;;;;;;;3.40;99.90;;;;;;5090424;28;19923;-57
2022/03/11 04:14:34;;;;;;;;;;;3.40;99.90;;;;;;5109212;28;20422;-57
2022/03/11 04:17:00;;;;;;;;;;;3.30;99.90;;;;;;5111399;27;19919;-58
2022/03/11 04:19:25;;;;;;;;;;;3.30;99.90;;;;;;5101139;28;20672;-58
2022/03/11 04:21:51;;;;;;;;;;;3.30;99.90;;;;;;5094336;28;19927;-58
2022/03/11 04:24:17;;;;;;;;;;;3.20;99.90;;;;;;5102581;28;20373;-57
2022/03/11 04:26:44;;;;;;;;;;;3.20;99.90;;;;;;5100096;28;19931;-56
2022/03/11 04:29:10;;;;;;;;;;;3.20;99.90;;;;;;5094700;28;20018;-56
2022/03/11 04:31:35;;;;;;;;;;;3.20;99.90;;;;;;5094100;28;20305;-58
2022/03/11 04:34:02;;;;;;;;;;;3.20;99.90;;;;;;5085519;28;19928;-57
2022/03/11 04:36:28;;;;;;;;;;;3.10;99.90;;;;;;5100737;28;19971;-55
2022/03/11 04:38:54;;;;;;;;;;;3.10;99.90;;;;;;5099919;28;19955;-57
2022/03/11 04:41:20;;;;;;;;;;;3.10;99.90;;;;;;5099081;28;19975;-56
2022/03/11 04:43:45;;;;;;;;;;;3.10;99.90;;;;;;5096161;28;19949;-57
2022/03/11 04:46:11;;;;;;;;;;;3.10;99.90;;;;;;5097582;28;20000;-57
2022/03/11 04:48:36;;;;;;;;;;;3.00;99.90;;;;;;5094987;28;19930;-57
2022/03/11 04:51:02;;;;;;;;;;;3.00;99.90;;;;;;5095333;28;20435;-57
2022/03/11 04:53:28;;;;;;;;;;;3.00;99.90;;;;;;5093364;28;19925;-56
2022/03/11 04:55:53;;;;;;;;;;;3.00;99.90;;;;;;5091820;28;19927;-56
2022/03/11 04:58:18;;;;;;;;;;;2.90;99.90;;;;;;5070044;28;19966;-57
2022/03/11 05:00:44;;;;;;;;;;;2.90;99.90;;;;;;5071472;28;19958;-57
2022/03/11 05:03:10;;;;;;;;;;;2.80;99.90;;;;;;5087579;28;19982;-58
2022/03/11 05:05:35;;;;;;;;;;;2.80;99.90;;;;;;5087443;28;19998;-57
2022/03/11 05:08:01;;;;;;;;;;;2.80;99.90;;;;;;5082117;28;19924;-56
2022/03/11 05:10:26;;;;;;;;;;;2.80;99.90;;;;;;5087764;28;20479;-57
2022/03/11 05:12:52;;;;;;;;;;;2.80;99.90;;;;;;5086579;28;19930;-57
2022/03/11 05:15:18;;;;;;;;;;;2.80;99.90;;;;;;5082197;28;19924;-56
2022/03/11 05:17:43;;;;;;;;;;;2.70;99.90;;;;;;5086958;28;19924;-58
2022/03/11 05:20:09;;;;;;;;;;;2.70;99.90;;;;;;5082569;28;19982;-57
2022/03/11 05:22:35;;;;;;;;;;;2.70;99.90;;;;;;5087414;28;19928;-57
2022/03/11 05:25:00;;;;;;;;;;;2.70;99.90;;;;;;5087997;28;19974;-57
2022/03/11 05:27:26;;;;;;;;;;;2.70;99.90;;;;;;5085512;28;19927;-57
2022/03/11 05:29:51;;;;;;;;;;;2.70;99.90;;;;;;5085737;28;19935;-57
2022/03/11 05:32:19;;;;;;;;;;;2.70;99.90;;;;;;5088180;28;19959;-57
2022/03/11 05:34:45;;;;;;;;;;;2.60;99.90;;;;;;5073052;28;19946;-56
2022/03/11 05:37:10;;;;;;;;;;;2.50;99.90;;;;;;5068262;28;19928;-57
2022/03/11 05:39:36;;;;;;;;;;;2.60;99.90;;;;;;5088692;28;19920;-58
2022/03/11 05:42:02;;;;;;;;;;;2.60;99.90;;;;;;5086133;28;20293;-57
2022/03/11 05:44:27;;;;;;;;;;;2.50;99.90;;;;;;5086713;28;19955;-55
2022/03/11 05:46:53;;;;;;;;;;;2.50;99.90;;;;;;5086338;28;19923;-57
2022/03/11 05:49:19;;;;;;;;;;;2.50;99.90;;;;;;5086782;28;19924;-57
2022/03/11 05:51:45;;;;;;;;;;;2.50;99.90;;;;;;5091088;28;19973;-57
2022/03/11 05:54:10;;;;;;;;;;;2.40;99.90;;;;;;5096161;28;19935;-58
2022/03/11 05:56:37;;;;;;;;;;;2.50;99.90;;;;;;5075910;28;20279;-57
2022/03/11 05:59:03;;;;;;;;;;;2.40;99.90;;;;;;5100003;28;20304;-57
2022/03/11 06:01:28;;;;;;;;;;;2.40;99.90;;;;;;5098354;28;19928;-56
2022/03/11 06:03:54;;;;;;;;;;;2.40;99.90;;;;;;5092749;28;20270;-55
2022/03/11 06:06:19;;;;;;;;;;;2.40;99.90;;;;;;5099771;28;19954;-56
2022/03/11 06:08:45;;;;;;;;;;;2.40;99.90;;;;;;5097838;28;19923;-57
2022/03/11 06:11:10;;;;;;;;;;;2.40;99.90;;;;;;5094419;28;19924;-56
2022/03/11 06:13:36;;;;;;;;;;;2.40;99.90;;;;;;5084585;28;20275;-57
2022/03/11 06:16:02;;;;;;;;;;;2.40;99.90;;;;;;5096594;28;19920;-57
2022/03/11 06:18:28;;;;;;;;;;;2.30;99.90;;;;;;5096114;28;20239;-57
2022/03/11 06:20:53;;;;;;;;;;;2.30;99.90;;;;;;5099374;28;19935;-57
2022/03/11 06:23:19;;;;;;;;;;;2.40;99.90;;;;;;5093075;28;20042;-57
2022/03/11 06:25:44;;;;;;;;;;;2.40;99.90;;;;;;5095124;28;20061;-57
2022/03/11 06:28:10;;;;;;;;;;;2.40;99.90;;;;;;5096656;28;20003;-56
2022/03/11 06:30:35;;;;;;;;;;;2.40;99.90;;;;;;5099722;28;19920;-57
2022/03/11 06:33:01;;;;;;;;;;;2.40;99.90;;;;;;5100896;28;19942;-56
2022/03/11 06:35:26;;;;;;;;;;;2.40;99.90;;;;;;5099140;28;19943;-56
2022/03/11 06:37:52;;;;;;;;;;;2.40;99.90;;;;;;5098344;28;20400;-57
2022/03/11 06:40:18;;;;;;;;;;;2.50;99.90;;;;;;5095632;28;19920;-57
2022/03/11 06:42:44;;;;;;;;;;;2.50;99.90;;;;;;5098724;28;19920;-57
2022/03/11 06:45:11;;;;;;;;;;;2.50;99.90;;;;;;5101800;28;19936;-56
2022/03/11 06:47:36;;;;;;;;;;;2.50;99.90;;;;;;5099177;28;20632;-57
2022/03/11 06:50:03;;;;;;;;;;;2.60;99.90;;;;;;5100671;28;20063;-57
2022/03/11 06:52:28;;;;;;;;;;;2.70;99.90;;;;;;5103352;28;19923;-56
2022/03/11 06:54:54;;;;;;;;;;;2.70;99.90;;;;;;5104270;28;19930;-57
2022/03/11 06:57:20;;;;;;;;;;;2.90;99.90;;;;;;5101687;28;20640;-55
2022/03/11 06:59:46;;;;;;;;;;;3.60;99.90;;;;;;5107654;28;19973;-57
2022/03/11 07:02:12;;;;;;;;;;;4.10;99.90;;;;;;5105133;28;19928;-57
2022/03/11 07:04:37;;;;;;;;;;;4.80;99.90;;;;;;5104647;28;20318;-58
2022/03/11 07:07:03;;;;;;;;;;;5.00;99.90;;;;;;5100888;28;19934;-56
2022/03/11 07:09:28;;;;;;;;;;;5.40;99.90;;;;;;5103762;28;20424;-55
2022/03/11 07:11:57;;;;;;;;;;;5.40;99.90;;;;;;5102347;28;19924;-57
2022/03/11 07:14:26;;;;;;;;;;;5.00;99.90;;;;;;5099723;28;19930;-56
2022/03/11 07:16:56;;;;;;;;;;;4.70;99.90;;;;;;5103420;28;20374;-57
2022/03/11 07:19:21;;;;;;;;;;;4.50;99.90;;;;;;5104516;28;20064;-56
2022/03/11 07:21:47;;;;;;;;;;;4.30;99.90;;;;;;5105123;28;20438;-56
2022/03/11 07:24:13;;;;;;;;;;;4.30;99.90;;;;;;5104146;28;20014;-55
2022/03/11 07:26:38;;;;;;;;;;;4.20;99.90;;;;;;5107909;28;19933;-57
2022/03/11 07:29:04;;;;;;;;;;;4.20;99.90;;;;;;5106273;28;20358;-56
2022/03/11 07:31:29;;;;;;;;;;;4.30;99.90;;;;;;5104544;28;19959;-57
2022/03/11 07:33:55;;;;;;;;;;;4.30;99.90;;;;;;5087083;28;19920;-55
2022/03/11 07:36:21;;;;;;;;;;;4.40;99.90;;;;;;5108729;28;19920;-54
2022/03/11 07:38:48;;;;;;;;;;;4.50;99.90;;;;;;5103650;28;20347;-57
2022/03/11 07:41:14;;;;;;;;;;;4.60;99.90;;;;;;5109670;28;20020;-56
2022/03/11 07:43:42;;;;;;;;;;;4.60;99.90;;;;;;5105254;28;19924;-56
2022/03/11 07:46:08;;;;;;;;;;;4.80;99.90;;;;;;5106191;28;19926;-57
2022/03/11 07:48:34;;;;;;;;;;;4.80;99.90;;;;;;5106849;28;19927;-56
2022/03/11 07:51:01;;;;;;;;;;;4.90;99.90;;;;;;5110247;28;19920;-55
2022/03/11 07:53:27;;;;;;;;;;;5.00;99.90;;;;;;5108659;27;19920;-55
2022/03/11 07:55:52;;;;;;;;;;;5.10;99.90;;;;;;5110376;28;19973;-55
2022/03/11 07:58:21;;;;;;;;;;;5.20;99.90;;;;;;5111523;28;19920;-56
2022/03/11 08:00:50;;;;;;;;;;;5.20;99.90;;;;;;5107576;28;19924;-54
2022/03/11 08:03:16;;;;;;;;;;;5.30;99.90;;;;;;5111672;28;19927;-56
2022/03/11 08:05:41;;;;;;;;;;;5.40;99.90;;;;;;5112244;28;19931;-56
2022/03/11 08:08:07;;;;;;;;;;;5.40;99.90;;;;;;5106081;28;19973;-55
2022/03/11 08:10:35;;;;;;;;;;;5.50;99.90;;;;;;5112539;28;19927;-56
2022/03/11 08:13:00;;;;;;;;;;;5.70;99.90;;;;;;5109266;28;20018;-54
2022/03/11 08:15:26;;;;;;;;;;;5.70;99.90;;;;;;5109907;27;20338;-56
2022/03/11 08:17:52;;;;;;;;;;;5.90;99.90;;;;;;5110257;28;19919;-55
2022/03/11 08:20:18;;;;;;;;;;;5.90;99.90;;;;;;5112575;28;19924;-55
2022/03/11 08:22:45;;;;;;;;;;;6.10;99.90;;;;;;5111531;28;19919;-55
2022/03/11 08:25:11;;;;;;;;;;;6.10;99.90;;;;;;5111902;27;20029;-55
2022/03/11 08:27:37;;;;;;;;;;;6.30;99.90;;;;;;5111265;28;20413;-55
2022/03/11 08:30:04;;;;;;;;;;;6.40;99.90;;;;;;5103181;28;19926;-56
2022/03/11 08:32:30;;;;;;;;;;;6.50;99.90;;;;;;5109910;28;19930;-56
2022/03/11 08:34:55;;;;;;;;;;;6.60;99.90;;;;;;5110608;28;20265;-57
2022/03/11 08:37:21;;;;;;;;;;;6.70;99.90;;;;;;5111201;28;19931;-56
2022/03/11 08:39:46;;;;;;;;;;;6.70;99.90;;;;;;5113414;28;20350;-56
2022/03/11 08:42:12;;;;;;;;;;;6.90;99.90;;;;;;5109834;28;19920;-56
2022/03/11 08:44:37;;;;;;;;;;;6.90;99.90;;;;;;5110879;28;19919;-56
2022/03/11 08:47:03;;;;;;;;;;;7.00;99.90;;;;;;5111350;28;20292;-56
2022/03/11 08:49:28;;;;;;;;;;;6.90;99.90;;;;;;5085880;28;19920;-56
2022/03/11 08:51:54;;;;;;;;;;;7.00;99.90;;;;;;5094928;28;19943;-56
2022/03/11 08:54:20;;;;;;;;;;;7.10;99.90;;;;;;5093546;28;20018;-56
2022/03/11 08:56:46;;;;;;;;;;;7.20;99.90;;;;;;5092731;28;20416;-55
2022/03/11 08:59:12;;;;;;;;;;;7.30;99.90;;;;;;5093696;28;19924;-57
2022/03/11 09:01:37;;;;;;;;;;;7.40;99.80;;;;;;5093978;28;20361;-56
2022/03/11 09:04:03;;;;;;;;;;;7.40;98.50;;;;;;5107444;28;19920;-56
2022/03/11 09:06:29;;;;;;;;;;;7.50;99.10;;;;;;5099142;28;19949;-56
2022/03/11 09:08:54;;;;;;;;;;;7.70;99.10;;;;;;5093314;28;19920;-57
2022/03/11 09:11:20;;;;;;;;;;;7.80;99.40;;;;;;5092039;28;19968;-56
2022/03/11 09:13:47;;;;;;;;;;;7.90;97.30;;;;;;5097258;28;19920;-57
2022/03/11 09:16:13;;;;;;;;;;;7.90;97.10;;;;;;5102218;28;20064;-56
2022/03/11 09:18:38;;;;;;;;;;;7.90;95.60;;;;;;5098921;28;20027;-57
2022/03/11 09:21:04;;;;;;;;;;;8.00;96.10;;;;;;5111802;28;19919;-56
2022/03/11 09:23:30;;;;;;;;;;;8.10;96.10;;;;;;5101761;28;19972;-57
2022/03/11 09:25:55;;;;;;;;;;;8.20;93.60;;;;;;5089875;28;19946;-56
2022/03/11 09:28:22;;;;;;;;;;;8.20;94.00;;;;;;5090580;28;20397;-56
2022/03/11 09:30:47;;;;;;;;;;;8.40;93.40;;;;;;5075539;28;19963;-56
2022/03/11 09:33:12;;;;;;;;;;;8.50;92.20;;;;;;5090350;28;20027;-56
2022/03/11 09:35:38;;;;;;;;;;;8.60;91.30;;;;;;5090609;28;20515;-57
2022/03/11 09:38:03;;;;;;;;;;;8.70;90.10;;;;;;5076388;28;19966;-56
2022/03/11 09:40:29;;;;;;;;;;;8.90;86.30;;;;;;5091257;28;19924;-57
2022/03/11 09:42:56;;;;;;;;;;;9.00;84.20;;;;;;5094944;28;19924;-56
2022/03/11 09:45:23;;;;;;;;;;;9.00;82.70;;;;;;5094412;28;20374;-56
2022/03/11 09:47:48;;;;;;;;;;;9.10;80.30;;;;;;5093075;28;19920;-56
2022/03/11 09:50:14;;;;;;;;;;;9.20;78.00;;;;;;5102378;28;20274;-56
2022/03/11 09:52:39;;;;;;;;;;;9.10;76.20;;;;;;5108121;28;19931;-56
2022/03/11 09:55:05;;;;;;;;;;;9.30;75.90;;;;;;5111222;28;19920;-56
2022/03/11 09:57:30;;;;;;;;;;;9.40;76.40;;;;;;5111617;28;19920;-57
2022/03/11 09:59:56;;;;;;;;;;;9.50;75.60;;;;;;5112286;28;20331;-57
2022/03/11 10:02:21;;;;;;;;;;;9.40;74.20;;;;;;5107772;28;19919;-55
2022/03/11 10:04:57;;;;;;;;;;;9.40;71.40;;;;;;5110945;28;19926;-57
2022/03/11 10:07:26;;;;;;;;;;;9.40;71.00;;;;;;5110528;28;20012;-57
2022/03/11 10:09:52;;;;;;;;;;;9.40;71.10;;;;;;5111937;28;19969;-57
2022/03/11 10:12:26;;;;;;;;;;;9.50;69.90;;;;;;5109524;28;20043;-56
2022/03/11 10:14:56;;;;;;;;;;;9.60;70.60;;;;;;5109716;28;19930;-57
2022/03/11 10:17:22;;;;;;;;;;;9.70;69.60;;;;;;5109197;28;19959;-55
2022/03/11 10:20:02;;;;;;;;;;;9.60;68.40;;;;;;5109794;28;19920;-57
2022/03/11 10:22:28;;;;;;;;;;;9.60;68.60;;;;;;5109886;28;20014;-56
2022/03/11 10:24:53;;;;;;;;;;;9.70;68.50;;;;;;5111670;28;19988;-55
2022/03/11 10:27:19;;;;;;;;;;;9.80;68.30;;;;;;5110906;28;19924;-57
2022/03/11 10:29:44;;;;;;;;;;;9.80;67.20;;;;;;5112487;28;19930;-57
2022/03/11 10:32:10;;;;;;;;;;;9.70;67.40;;;;;;5110893;28;19942;-56
2022/03/11 10:34:36;;;;;;;;;;;9.90;67.10;;;;;;5110280;28;19923;-57
2022/03/11 10:37:03;;;;;;;;;;;9.90;66.10;;;;;;5111543;28;19926;-56
2022/03/11 10:39:28;;;;;;;;;;;10.00;66.90;;;;;;5110835;28;20391;-57
2022/03/11 10:41:54;;;;;;;;;;;10.10;67.00;;;;;;5111832;28;20035;-57
2022/03/11 10:44:26;;;;;;;;;;;10.00;65.80;;;;;;5111031;28;19923;-57
2022/03/11 10:47:14;;;;;;;;;;;10.10;65.20;;;;;;5093816;28;19958;-57
2022/03/11 10:49:47;;;;;;;;;;;10.10;64.60;;;;;;5110879;28;19920;-57
2022/03/11 10:52:12;;;;;;;;;;;10.20;64.40;;;;;;5111249;28;20287;-57
2022/03/11 10:54:41;;;;;;;;;;;10.30;64.80;;;;;;5111088;28;19926;-57
2022/03/11 10:57:10;;;;;;;;;;;10.30;64.10;;;;;;5093006;28;20307;-55
2022/03/11 10:59:36;;;;;;;;;;;10.40;63.60;;;;;;5109803;28;19919;-57
2022/03/11 11:02:02;;;;;;;;;;;10.40;63.70;;;;;;5109323;28;19999;-56
2022/03/11 11:04:27;;;;;;;;;;;10.50;63.20;;;;;;5108937;28;19919;-57
2022/03/11 11:06:53;;;;;;;;;;;10.60;63.10;;;;;;5110997;28;19929;-57
2022/03/11 11:09:23;;;;;;;;;;;10.50;62.30;;;;;;5113431;28;19923;-57
2022/03/11 11:11:48;;;;;;;;;;;10.50;62.30;;;;;;5110682;28;19966;-55
2022/03/11 11:14:14;;;;;;;;;;;10.60;62.20;;;;;;5113514;28;19970;-56
2022/03/11 11:16:40;;;;;;;;;;;10.60;62.30;;;;;;5113747;28;19981;-56
2022/03/11 11:19:07;;;;;;;;;;;10.70;61.70;;;;;;5107583;27;19923;-56
2022/03/11 11:21:34;;;;;;;;;;;10.70;60.90;;;;;;5113453;28;20010;-56
2022/03/11 11:23:59;;;;;;;;;;;10.80;61.70;;;;;;5111206;28;20384;-55
2022/03/11 11:26:26;;;;;;;;;;;10.80;61.10;;;;;;5113741;28;20002;-56
2022/03/11 11:28:53;;;;;;;;;;;10.90;61.30;;;;;;5114903;28;20143;-57
2022/03/11 11:31:20;;;;;;;;;;;10.80;60.90;;;;;;5112206;28;19920;-56
2022/03/11 11:33:47;;;;;;;;;;;11.00;60.60;;;;;;5114627;28;19924;-56
2022/03/11 11:36:12;;;;;;;;;;;11.00;60.70;;;;;;5112464;28;19991;-57
2022/03/11 11:38:38;;;;;;;;;;;11.10;61.50;;;;;;5114263;27;20431;-56
2022/03/11 11:41:19;;;;;;;;;;;11.30;61.00;;;;;;5115094;28;19920;-57
2022/03/11 11:43:52;;;;;;;;;;;11.50;61.00;;;;;;5114216;28;19920;-57
2022/03/11 11:46:20;;;;;;;;;;;11.50;59.90;;;;;;5112017;28;19972;-57
2022/03/11 11:48:52;;;;;;;;;;;11.40;58.90;;;;;;5115953;27;20011;-57
2022/03/11 11:51:22;;;;;;;;;;;11.50;58.20;;;;;;5114282;28;20450;-56
2022/03/11 11:53:54;;;;;;;;;;;11.60;59.40;;;;;;5099297;28;19920;-57
2022/03/11 11:56:30;;;;;;;;;;;11.60;58.30;;;;;;5096620;28;20283;-56
2022/03/11 11:58:57;;;;;;;;;;;11.50;57.40;;;;;;5100582;28;20002;-56
2022/03/11 12:01:41;;;;;;;;;;;11.60;57.40;;;;;;5111616;28;20026;-57
2022/03/11 12:04:16;;;;;;;;;;;11.70;57.30;;;;;;5102730;28;19947;-56
2022/03/11 12:06:57;;;;;;;;;;;11.60;57.30;;;;;;5114719;28;20373;-57
2022/03/11 12:09:38;;;;;;;;;;;11.70;57.40;;;;;;5097582;28;19936;-56
2022/03/11 12:12:04;;;;;;;;;;;11.90;57.70;;;;;;5098695;28;20335;-56
2022/03/11 12:14:29;;;;;;;;;;;11.80;56.30;;;;;;5089150;28;20365;-57
2022/03/11 12:17:00;;;;;;;;;;;11.90;57.00;;;;;;5107693;28;20007;-57
2022/03/11 12:19:36;;;;;;;;;;;11.90;55.20;;;;;;5111596;28;20362;-57
2022/03/11 12:22:20;;;;;;;;;;;12.00;56.50;;;;;;5095552;28;19920;-57
2022/03/11 12:24:56;;;;;;;;;;;12.00;55.80;;;;;;5097500;28;19976;-56
2022/03/11 12:27:40;;;;;;;;;;;12.00;55.30;;;;;;5103405;28;20275;-56
2022/03/11 12:30:10;;;;;;;;;;;12.00;55.90;;;;;;5112849;28;19950;-56
2022/03/11 12:32:38;;;;;;;;;;;12.20;55.90;;;;;;5111167;28;20022;-56
2022/03/11 12:35:04;;;;;;;;;;;12.30;55.40;;;;;;5104604;28;19963;-56
2022/03/11 12:37:29;;;;;;;;;;;12.30;54.90;;;;;;5103503;28;19974;-56
2022/03/11 12:39:57;;;;;;;;;;;12.40;54.70;;;;;;5112832;28;19932;-54
2022/03/11 12:42:42;;;;;;;;;;;12.50;54.80;;;;;;5100750;28;19965;-56
2022/03/11 12:45:08;;;;;;;;;;;12.60;55.50;;;;;;5094571;28;19981;-56
2022/03/11 12:47:34;;;;;;;;;;;12.50;53.20;;;;;;5107693;28;20006;-56
2022/03/11 12:50:00;;;;;;;;;;;12.50;52.80;;;;;;5097490;28;20010;-56
2022/03/11 12:52:26;;;;;;;;;;;12.50;52.80;;;;;;5107272;28;19919;-56
2022/03/11 12:54:52;;;;;;;;;;;12.50;53.20;;;;;;5114317;28;20335;-56
2022/03/11 12:57:17;;;;;;;;;;;12.60;52.90;;;;;;5113262;27;19927;-55
2022/03/11 12:59:45;;;;;;;;;;;12.60;53.10;;;;;;5113450;28;19926;-55
2022/03/11 13:02:10;;;;;;;;;;;12.70;53.60;;;;;;5112978;28;20340;-56
2022/03/11 13:04:42;;;;;;;;;;;12.70;53.00;;;;;;5113852;28;19919;-56
2022/03/11 13:07:08;;;;;;;;;;;12.90;53.50;;;;;;5111472;28;20376;-56
2022/03/11 13:09:33;;;;;;;;;;;12.80;52.40;;;;;;5116843;27;20356;-56
2022/03/11 13:12:17;;;;;;;;;;;12.90;53.00;;;;;;5113135;28;19924;-55
2022/03/11 13:14:43;;;;;;;;;;;12.90;52.60;;;;;;5104934;28;20283;-56
2022/03/11 13:17:08;;;;;;;;;;;12.80;52.40;;;;;;5110232;28;19920;-56
2022/03/11 13:19:34;;;;;;;;;;;12.90;53.20;;;;;;5113148;28;19920;-56
2022/03/11 13:21:59;;;;;;;;;;;13.00;51.90;;;;;;5113694;28;19926;-56
2022/03/11 13:24:25;;;;;;;;;;;13.00;52.20;;;;;;5113513;28;19959;-56
2022/03/11 13:27:03;;;;;;;;;;;13.10;51.70;;;;;;5105455;28;19920;-56
2022/03/11 13:29:29;;;;;;;;;;;13.10;51.40;;;;;;5113214;28;19919;-56
2022/03/11 13:31:56;;;;;;;;;;;13.20;51.40;;;;;;5111875;28;19919;-56
2022/03/11 13:34:26;;;;;;;;;;;13.10;50.80;;;;;;5113771;28;20357;-56
2022/03/11 13:36:52;;;;;;;;;;;13.10;50.70;;;;;;5109541;28;20354;-56
2022/03/11 13:39:19;;;;;;;;;;;13.20;51.50;;;;;;5106044;27;19958;-56
2022/03/11 13:41:46;;;;;;;;;;;13.20;51.60;;;;;;5105740;28;19980;-57
2022/03/11 13:44:13;;;;;;;;;;;13.20;51.10;;;;;;5102550;28;19977;-57
2022/03/11 13:46:42;;;;;;;;;;;13.10;50.40;;;;;;5100331;28;20334;-57
2022/03/11 13:49:10;;;;;;;;;;;13.20;50.40;;;;;;5107995;27;19954;-58
2022/03/11 13:51:43;;;;;;;;;;;13.10;50.00;;;;;;5100488;28;19920;-56
2022/03/11 13:54:08;;;;;;;;;;;13.20;50.30;;;;;;5096805;28;21327;-57
2022/03/11 13:56:41;;;;;;;;;;;13.30;50.90;;;;;;5104641;28;20027;-57
2022/03/11 13:59:07;;;;;;;;;;;13.30;50.30;;;;;;5104440;28;19927;-56
2022/03/11 14:01:36;;;;;;;;;;;13.40;49.60;;;;;;5107084;28;20282;-57
2022/03/11 14:04:15;;;;;;;;;;;13.40;50.20;;;;;;5104009;28;19962;-57
2022/03/11 14:06:41;;;;;;;;;;;13.40;50.20;;;;;;5104786;28;20014;-57
2022/03/11 14:09:06;;;;;;;;;;;13.40;49.50;;;;;;5112399;28;20010;-57
2022/03/11 14:11:32;;;;;;;;;;;13.40;49.70;;;;;;5112779;28;21250;-57
2022/03/11 14:13:57;;;;;;;;;;;13.50;49.70;;;;;;5112600;28;20266;-57
2022/03/11 14:16:28;;;;;;;;;;;13.40;49.30;;;;;;5096955;28;20356;-57
2022/03/11 14:18:54;;;;;;;;;;;13.40;48.80;;;;;;5101015;28;20242;-57
2022/03/11 14:21:19;;;;;;;;;;;13.50;48.80;;;;;;5113408;28;19931;-57
2022/03/11 14:23:45;;;;;;;;;;;13.50;49.00;;;;;;5113152;28;20787;-57